Date,TemperatureHighF,TemperatureAvgF,TemperatureLowF,DewpointHighF,DewpointAvgF,DewpointLowF,HumidityHigh,HumidityAvg,HumidityLow,PressureMaxIn,PressureMinIn,WindSpeedMaxMPH,WindSpeedAvgMPH,GustSpeedMaxMPH,PrecipitationSumIn
2013-1-1,39.4,31.2,28.0,30.4,21.6,18.9,72,68,64,30.30,30.04,20,5,31,0.00
2013-1-2,44.1,33.2,27.9,27.5,21.3,18.0,68,62,50,30.32,30.19,11,1,15,0.00
2013-1-3,43.9,33.9,27.1,28.6,21.2,17.6,67,60,47,30.46,30.31,13,1,17,0.00
2013-1-4,46.9,35.4,25.7,27.5,21.8,14.7,66,58,43,30.47,30.29,13,2,17,0.00
2013-1-5,50.7,41.5,35.2,33.6,28.1,22.3,68,59,49,30.31,30.16,15,4,21,0.00
2013-1-6,62.4,41.1,30.0,36.3,22.7,18.1,63,50,30,30.43,30.30,11,2,16,0.00
2013-1-7,52.2,39.6,27.9,29.1,23.5,15.4,60,53,36,30.33,30.09,15,4,19,0.00
2013-1-8,54.1,45.2,36.1,38.7,31.5,23.5,68,59,56,30.16,30.02,15,3,21,0.44
2013-1-9,51.1,48.2,47.1,42.3,39.3,37.0,73,72,68,30.30,30.09,15,4,25,0.27
2013-1-10,56.8,51.9,48.0,48.2,42.8,38.5,73,71,65,30.10,29.82,18,2,28,0.06
2013-1-11,71.1,56.3,46.8,49.8,42.2,36.3,70,60,45,29.88,29.70,20,8,32,0.00
2013-1-12,60.3,46.2,36.3,44.4,29.3,23.4,60,53,37,29.97,29.84,18,8,28,0.00
2013-1-23,68.9,63.5,58.6,52.0,47.0,42.4,57,55,53,30.16,30.12,6,0,8,0.00
2013-1-24,58.6,42.2,31.6,42.8,28.7,19.4,60,59,55,30.23,30.11,11,3,17,0.00
2013-1-25,60.4,35.4,27.1,45.0,23.1,16.2,64,61,55,30.24,30.12,14,2,15,0.00
2013-1-26,46.6,40.5,33.1,34.0,28.1,20.7,64,61,57,30.23,30.07,14,3,21,0.45
2013-1-27,67.1,55.8,44.2,48.7,41.6,32.7,67,60,52,30.08,29.86,22,10,33,0.00
2013-1-28,73.6,67.3,62.4,56.3,49.2,45.0,56,53,51,29.95,29.76,21,11,33,0.00
2013-1-29,68.9,58.3,40.8,50.4,41.7,27.1,58,54,51,29.77,29.47,21,6,32,0.00
2013-1-30,46.2,39.5,32.5,29.1,24.1,19.8,64,55,37,30.08,29.68,23,8,36,0.00
2013-1-31,59.7,40.7,26.2,30.6,23.2,14.5,63,52,30,30.40,30.04,19,5,29,0.45
2013-2-1,52.0,34.5,19.8,29.3,18.1,9.7,65,53,32,30.41,30.12,18,3,26,0.00
2013-2-2,59.0,44.9,30.7,36.3,28.6,18.0,63,54,39,30.31,30.15,14,2,18,0.00
2013-2-3,55.2,43.2,36.5,32.2,29.1,24.6,63,58,41,30.32,30.27,7,0,12,0.00
2013-2-7,65.5,54.4,43.5,50.4,40.1,31.6,64,59,55,30.18,29.82,28,7,37,0.45
2013-2-8,57.2,44.3,35.2,37.4,30.5,22.8,65,59,42,30.32,30.13,10,1,13,0.00
2013-2-9,49.5,42.9,38.1,36.1,29.6,25.3,64,59,57,30.14,29.70,25,8,33,0.00
2013-2-10,61.7,52.3,41.7,40.6,32.7,26.1,66,49,34,30.07,29.67,17,4,23,0.00
2013-2-11,57.9,45.3,35.1,30.6,26.1,23.4,64,48,32,30.23,30.06,14,2,20,0.00
2013-2-12,42.6,36.1,33.6,29.0,23.5,20.7,65,60,53,30.09,29.95,14,3,19,0.45
2013-2-13,55.4,41.8,32.9,38.7,26.3,20.8,66,55,33,30.09,29.98,12,1,15,0.00
2013-2-14,65.5,47.4,33.4,37.2,30.6,21.4,65,54,31,30.22,30.01,22,3,37,0.00
2013-2-15,44.8,39.0,31.1,32.4,22.5,15.8,67,53,34,30.40,30.22,17,5,29,0.00
2013-2-16,52.9,40.8,28.6,32.2,24.1,17.1,67,53,36,30.38,30.08,13,3,19,0.00
2013-2-17,71.2,55.4,37.4,36.9,32.0,26.4,65,44,24,30.08,29.76,23,10,41,0.00
2013-2-18,59.5,53.4,41.5,46.6,35.5,25.9,63,51,37,30.16,29.66,26,11,41,0.00
2013-2-19,59.7,43.8,30.9,28.8,24.6,20.8,66,50,28,30.34,30.16,9,0,12,0.00
2013-2-20,36.3,35.3,33.6,23.4,22.3,20.7,59,59,59,30.20,29.88,14,1,21,0.00
2013-2-21,45.0,35.6,25.3,31.8,23.0,16.0,68,60,57,30.01,29.66,19,4,30,0.00
2013-2-22,39.6,28.8,21.4,22.8,17.4,11.8,68,63,49,30.16,30.00,15,3,23,0.00
2013-2-23,48.2,32.8,20.8,31.3,20.6,10.0,68,61,48,30.12,29.90,11,1,14,0.00
2013-2-24,63.7,48.5,30.4,40.6,33.0,19.9,66,56,40,29.91,29.71,26,7,36,0.00
2013-2-25,49.6,40.8,34.0,36.5,27.6,21.0,65,59,56,29.77,29.49,22,7,34,0.00
2013-2-26,48.0,39.6,34.0,32.4,26.2,21.0,66,59,45,29.94,29.62,22,9,36,0.00
2013-2-27,46.0,37.6,29.3,29.3,24.4,18.0,67,59,43,30.22,29.91,25,7,40,0.00
2013-2-28,48.6,38.6,30.4,31.5,25.1,19.6,67,59,43,30.26,30.19,22,5,32,0.00
2013-3-1,44.2,36.3,26.4,30.4,24.6,14.7,67,63,56,30.33,30.21,19,7,28,0.00
2013-3-2,36.3,28.0,25.0,26.2,17.9,13.8,68,66,60,30.40,30.32,13,2,18,0.00
2013-3-4,68.9,57.6,45.0,44.8,39.4,33.9,65,52,39,30.03,29.62,11,5,17,0.00
2013-3-5,49.6,41.3,34.9,34.3,22.9,17.3,66,49,33,30.39,30.03,12,4,18,0.45
2013-3-6,56.1,41.5,26.8,25.2,21.7,17.2,67,48,27,30.45,30.18,12,1,13,0.00
2013-3-7,70.5,54.5,40.8,33.3,27.2,20.8,46,36,24,30.19,30.04,31,10,38,0.00
2013-3-8,60.3,56.3,53.4,47.1,40.7,31.6,64,56,39,30.14,29.94,27,13,36,0.00
2013-3-9,63.1,58.4,54.7,45.7,41.5,37.6,59,53,51,29.95,29.66,29,10,39,0.00
2013-3-10,55.2,41.9,37.0,43.3,30.4,24.1,68,64,53,30.09,29.66,24,9,35,0.00
2013-3-11,42.6,31.1,29.8,27.0,21.7,14.3,69,68,66,30.07,30.02,11,1,15,0.00
2013-3-12,60.1,48.3,35.2,39.0,30.4,21.9,67,51,37,30.35,30.01,15,2,20,0.00
2013-3-13,63.3,50.1,34.5,34.9,29.9,24.3,67,48,30,30.46,30.30,15,2,16,0.00
2013-3-14,78.4,60.4,46.0,46.0,39.0,31.1,59,47,29,30.32,30.12,15,5,21,0.00
2013-3-15,81.7,67.2,54.1,48.9,45.5,42.1,65,48,30,30.13,29.80,21,8,31,0.00
2013-3-16,82.4,67.6,52.2,53.4,47.9,39.6,63,51,36,29.82,29.71,20,7,27,0.00
2013-3-17,52.2,44.3,41.2,39.7,31.9,27.3,65,62,57,29.86,29.69,16,5,24,0.00
2013-3-18,63.3,50.3,40.3,40.6,29.8,25.0,66,47,28,30.05,29.67,20,5,28,0.00
2013-3-19,61.9,50.4,36.7,37.2,29.0,24.8,66,46,28,30.22,29.99,18,2,26,0.00
2013-3-20,61.3,48.1,34.5,34.0,29.6,23.5,66,50,32,30.37,30.03,15,2,19,0.00
2013-3-21,59.0,49.4,43.7,41.5,34.1,28.2,65,56,46,30.03,29.59,28,8,38,0.00
2013-3-22,54.7,44.7,38.3,41.9,32.0,23.4,66,61,55,29.91,29.69,16,5,26,0.00
2013-3-23,46.4,42.5,38.1,35.2,27.9,23.7,65,56,54,29.91,29.72,18,3,26,0.00
2013-3-24,43.5,36.4,31.3,25.2,21.9,17.1,68,57,37,30.21,29.88,27,12,41,0.00
2013-3-25,44.2,36.1,30.0,21.7,17.6,13.1,66,48,32,30.39,30.20,25,8,38,0.00
2013-3-26,56.7,39.7,24.4,25.3,20.2,14.9,67,48,29,30.46,30.23,13,2,17,0.00
2013-3-27,69.6,54.3,39.2,40.6,32.1,23.2,54,44,34,30.24,30.05,27,12,40,0.00
2013-3-28,67.3,60.2,49.6,52.0,46.0,36.3,63,60,53,30.17,30.09,17,9,28,0.00
2013-3-29,63.3,60.2,57.2,49.5,43.4,38.8,61,54,50,30.14,30.08,15,7,21,0.00